sensor_id;sensor_type;location;lat;lon;timestamp;pressure;altitude;pressure_sealevel;temperature;humidity
58295;BME280;45705;55.592;37.460;2023-08-06T00:00:06;99394.97;;;22.76;90.56
58295;BME280;45705;55.592;37.460;2023-08-06T00:02:35;99392.22;;;22.76;90.46
58295;BME280;45705;55.592;37.460;2023-08-06T00:05:01;99404.44;;;22.72;90.49
58295;BME280;45705;55.592;37.460;2023-08-06T00:07:31;99402.81;;;22.67;91.54
58295;BME280;45705;55.592;37.460;2023-08-06T00:09:57;99395.00;;;22.84;89.52
58295;BME280;45705;55.592;37.460;2023-08-06T00:12:23;99400.53;;;22.76;90.43
58295;BME280;45705;55.592;37.460;2023-08-06T00:14:53;99401.94;;;22.56;93.81
58295;BME280;45705;55.592;37.460;2023-08-06T00:17:19;99409.03;;;22.53;93.56
58295;BME280;45705;55.592;37.460;2023-08-06T00:19:45;99409.13;;;22.60;92.51
58295;BME280;45705;55.592;37.460;2023-08-06T00:22:10;99398.19;;;22.34;95.56
58295;BME280;45705;55.592;37.460;2023-08-06T00:24:36;99412.81;;;22.34;95.22
58295;BME280;45705;55.592;37.460;2023-08-06T00:27:02;99406.53;;;22.37;95.80
58295;BME280;45705;55.592;37.460;2023-08-06T00:29:28;99402.53;;;22.35;95.00
58295;BME280;45705;55.592;37.460;2023-08-06T00:31:54;99400.75;;;22.16;97.58
58295;BME280;45705;55.592;37.460;2023-08-06T00:34:20;99418.81;;;22.06;99.30
58295;BME280;45705;55.592;37.460;2023-08-06T00:36:46;99423.13;;;22.34;95.17
58295;BME280;45705;55.592;37.460;2023-08-06T00:39:12;99408.19;;;22.46;93.04
58295;BME280;45705;55.592;37.460;2023-08-06T00:41:38;99409.03;;;22.53;92.37
58295;BME280;45705;55.592;37.460;2023-08-06T00:44:04;99409.78;;;22.50;92.10
58295;BME280;45705;55.592;37.460;2023-08-06T00:46:30;99413.72;;;22.46;92.50
58295;BME280;45705;55.592;37.460;2023-08-06T00:48:57;99403.88;;;22.52;92.04
58295;BME280;45705;55.592;37.460;2023-08-06T00:51:29;99411.25;;;22.33;95.13
58295;BME280;45705;55.592;37.460;2023-08-06T00:53:55;99416.47;;;22.05;98.13
58295;BME280;45705;55.592;37.460;2023-08-06T00:56:21;99414.59;;;22.16;98.11
58295;BME280;45705;55.592;37.460;2023-08-06T00:58:47;99407.22;;;22.27;96.97
58295;BME280;45705;55.592;37.460;2023-08-06T01:01:13;99411.88;;;22.23;97.48
58295;BME280;45705;55.592;37.460;2023-08-06T01:03:39;99410.66;;;22.17;98.11
58295;BME280;45705;55.592;37.460;2023-08-06T01:06:05;99413.34;;;22.10;98.34
58295;BME280;45705;55.592;37.460;2023-08-06T01:08:56;99418.13;;;22.13;98.97
58295;BME280;45705;55.592;37.460;2023-08-06T01:11:34;99414.94;;;22.11;99.40
58295;BME280;45705;55.592;37.460;2023-08-06T01:14:10;99414.84;;;22.03;100.00
58295;BME280;45705;55.592;37.460;2023-08-06T01:16:40;99415.59;;;21.97;100.00
58295;BME280;45705;55.592;37.460;2023-08-06T01:19:16;99411.59;;;21.94;100.00
58295;BME280;45705;55.592;37.460;2023-08-06T01:21:42;99419.22;;;21.71;100.00
58295;BME280;45705;55.592;37.460;2023-08-06T01:24:08;99415.41;;;21.82;100.00
58295;BME280;45705;55.592;37.460;2023-08-06T01:27:05;99415.47;;;21.86;100.00
58295;BME280;45705;55.592;37.460;2023-08-06T01:29:37;99415.53;;;21.93;100.00
58295;BME280;45705;55.592;37.460;2023-08-06T01:32:05;99415.53;;;21.93;100.00
58295;BME280;45705;55.592;37.460;2023-08-06T01:34:33;99416.28;;;21.90;100.00
58295;BME280;45705;55.592;37.460;2023-08-06T01:37:00;99418.59;;;21.85;100.00
58295;BME280;45705;55.592;37.460;2023-08-06T01:39:26;99426.53;;;21.86;100.00
58295;BME280;45705;55.592;37.460;2023-08-06T01:41:52;99425.22;;;21.76;100.00
58295;BME280;45705;55.592;37.460;2023-08-06T01:44:18;99427.94;;;21.73;100.00
58295;BME280;45705;55.592;37.460;2023-08-06T01:46:44;99436.66;;;21.75;100.00
58295;BME280;45705;55.592;37.460;2023-08-06T01:49:10;99427.88;;;21.66;100.00
58295;BME280;45705;55.592;37.460;2023-08-06T01:51:36;99427.94;;;21.73;100.00
58295;BME280;45705;55.592;37.460;2023-08-06T01:54:01;99433.47;;;21.73;100.00
58295;BME280;45705;55.592;37.460;2023-08-06T01:56:27;99430.22;;;21.63;100.00
58295;BME280;45705;55.592;37.460;2023-08-06T01:58:53;99435.41;;;21.69;100.00
58295;BME280;45705;55.592;37.460;2023-08-06T02:01:18;99439.78;;;21.70;100.00
58295;BME280;45705;55.592;37.460;2023-08-06T02:03:44;99433.47;;;21.73;100.00
58295;BME280;45705;55.592;37.460;2023-08-06T02:06:10;99437.50;;;21.75;100.00
58295;BME280;45705;55.592;37.460;2023-08-06T02:08:36;99445.03;;;21.78;100.00
58295;BME280;45705;55.592;37.460;2023-08-06T02:11:02;99436.59;;;21.68;100.00
58295;BME280;45705;55.592;37.460;2023-08-06T02:13:31;99440.16;;;21.68;100.00
58295;BME280;45705;55.592;37.460;2023-08-06T02:15:57;99436.97;;;21.66;100.00
58295;BME280;45705;55.592;37.460;2023-08-06T02:18:25;99440.63;;;21.74;100.00
58295;BME280;45705;55.592;37.460;2023-08-06T02:20:57;99439.78;;;21.70;100.00
58295;BME280;45705;55.592;37.460;2023-08-06T02:23:23;99450.13;;;21.76;100.00
58295;BME280;45705;55.592;37.460;2023-08-06T02:25:57;99453.38;;;21.82;100.00
58295;BME280;45705;55.592;37.460;2023-08-06T02:28:22;99461.16;;;21.73;100.00
58295;BME280;45705;55.592;37.460;2023-08-06T02:30:51;99455.63;;;21.73;100.00
58295;BME280;45705;55.592;37.460;2023-08-06T02:33:17;99454.97;;;21.83;100.00
58295;BME280;45705;55.592;37.460;2023-08-06T02:35:43;99457.22;;;21.74;100.00
58295;BME280;45705;55.592;37.460;2023-08-06T02:38:08;99457.59;;;21.72;100.00
58295;BME280;45705;55.592;37.460;2023-08-06T02:40:34;99464.53;;;21.89;100.00
58295;BME280;45705;55.592;37.460;2023-08-06T02:43:00;99462.19;;;21.91;100.00
58295;BME280;45705;55.592;37.460;2023-08-06T02:45:26;99464.69;;;22.03;100.00
58295;BME280;45705;55.592;37.460;2023-08-06T02:47:51;99463.13;;;22.02;100.00
58295;BME280;45705;55.592;37.460;2023-08-06T02:50:17;99456.81;;;22.06;100.00
58295;BME280;45705;55.592;37.460;2023-08-06T02:52:43;99445.72;;;22.06;100.00
58295;BME280;45705;55.592;37.460;2023-08-06T02:55:09;99454.47;;;22.08;100.00
58295;BME280;45705;55.592;37.460;2023-08-06T02:57:40;99448.16;;;22.11;100.00
58295;BME280;45705;55.592;37.460;2023-08-06T03:00:06;99455.41;;;22.22;100.00
58295;BME280;45705;55.592;37.460;2023-08-06T03:02:32;99449.16;;;22.26;99.96
58295;BME280;45705;55.592;37.460;2023-08-06T03:05:11;99445.25;;;22.30;98.83
58295;BME280;45705;55.592;37.460;2023-08-06T03:07:42;99445.03;;;22.50;97.34
58295;BME280;45705;55.592;37.460;2023-08-06T03:10:14;99447.75;;;22.46;97.96
58295;BME280;45705;55.592;37.460;2023-08-06T03:12:41;99446.63;;;22.51;97.67
58295;BME280;45705;55.592;37.460;2023-08-06T03:15:07;99454.13;;;22.50;98.40
58295;BME280;45705;55.592;37.460;2023-08-06T03:17:33;99438.41;;;22.61;97.55
58295;BME280;45705;55.592;37.460;2023-08-06T03:20:00;99443.22;;;22.68;98.44
58295;BME280;45705;55.592;37.460;2023-08-06T03:22:27;99451.97;;;22.74;98.64
58295;BME280;45705;55.592;37.460;2023-08-06T03:24:53;99446.16;;;22.90;98.42
58295;BME280;45705;55.592;37.460;2023-08-06T03:27:21;99447.75;;;22.91;97.35
58295;BME280;45705;55.592;37.460;2023-08-06T03:29:49;99444.22;;;22.94;96.40
58295;BME280;45705;55.592;37.460;2023-08-06T03:32:17;99440.91;;;23.29;89.98
58295;BME280;45705;55.592;37.460;2023-08-06T03:34:43;99446.97;;;23.49;89.33
58295;BME280;45705;55.592;37.460;2023-08-06T03:37:09;99443.88;;;23.69;86.27
58295;BME280;45705;55.592;37.460;2023-08-06T03:39:34;99442.44;;;24.04;84.42
58295;BME280;45705;55.592;37.460;2023-08-06T03:42:02;99445.78;;;24.67;81.11
58295;BME280;45705;55.592;37.460;2023-08-06T03:44:28;99444.09;;;25.56;74.34
58295;BME280;45705;55.592;37.460;2023-08-06T03:46:54;99440.09;;;25.57;74.21
58295;BME280;45705;55.592;37.460;2023-08-06T03:49:20;99443.16;;;26.02;70.94
58295;BME280;45705;55.592;37.460;2023-08-06T03:51:46;99440.22;;;26.23;69.77
58295;BME280;45705;55.592;37.460;2023-08-06T03:54:12;99444.28;;;26.71;65.85
58295;BME280;45705;55.592;37.460;2023-08-06T03:56:38;99441.59;;;27.05;65.20
58295;BME280;45705;55.592;37.460;2023-08-06T03:59:04;99441.41;;;27.23;63.54
58295;BME280;45705;55.592;37.460;2023-08-06T04:01:30;99439.31;;;27.73;61.50
58295;BME280;45705;55.592;37.460;2023-08-06T04:03:56;99434.81;;;28.13;59.01
58295;BME280;45705;55.592;37.460;2023-08-06T04:06:23;99436.41;;;28.69;56.90
58295;BME280;45705;55.592;37.460;2023-08-06T04:08:48;99440.38;;;29.18;54.78
58295;BME280;45705;55.592;37.460;2023-08-06T04:11:14;99440.03;;;29.36;53.99
58295;BME280;45705;55.592;37.460;2023-08-06T04:13:44;99442.28;;;29.65;53.00
58295;BME280;45705;55.592;37.460;2023-08-06T04:16:10;99427.28;;;30.48;49.74
58295;BME280;45705;55.592;37.460;2023-08-06T04:18:36;99423.59;;;30.68;49.92
58295;BME280;45705;55.592;37.460;2023-08-06T04:21:02;99427.53;;;30.37;50.37
58295;BME280;45705;55.592;37.460;2023-08-06T04:23:28;99425.69;;;30.47;48.19
58295;BME280;45705;55.592;37.460;2023-08-06T04:25:58;99423.94;;;30.53;48.19
58295;BME280;45705;55.592;37.460;2023-08-06T04:28:27;99421.47;;;30.39;48.81
58295;BME280;45705;55.592;37.460;2023-08-06T04:30:53;99428.13;;;30.78;47.25
58295;BME280;45705;55.592;37.460;2023-08-06T04:33:20;99413.47;;;31.49;45.65
58295;BME280;45705;55.592;37.460;2023-08-06T04:35:47;99414.75;;;31.31;46.41
58295;BME280;45705;55.592;37.460;2023-08-06T04:38:18;99413.06;;;31.63;44.49
58295;BME280;45705;55.592;37.460;2023-08-06T04:40:44;99421.47;;;32.05;42.60
58295;BME280;45705;55.592;37.460;2023-08-06T04:43:10;99423.19;;;31.73;44.05
58295;BME280;45705;55.592;37.460;2023-08-06T04:45:35;99419.19;;;32.00;42.51
58295;BME280;45705;55.592;37.460;2023-08-06T04:48:01;99427.72;;;31.84;42.76
58295;BME280;45705;55.592;37.460;2023-08-06T04:50:27;99417.19;;;32.39;41.56
58295;BME280;45705;55.592;37.460;2023-08-06T04:52:53;99422.03;;;32.38;40.94
58295;BME280;45705;55.592;37.460;2023-08-06T04:55:19;99416.31;;;32.42;41.67
58295;BME280;45705;55.592;37.460;2023-08-06T04:57:45;99437.03;;;32.23;41.90
58295;BME280;45705;55.592;37.460;2023-08-06T05:00:11;99430.19;;;33.32;40.45
58295;BME280;45705;55.592;37.460;2023-08-06T05:02:37;99418.25;;;32.93;40.37
58295;BME280;45705;55.592;37.460;2023-08-06T05:05:04;99419.19;;;33.47;40.33
58295;BME280;45705;55.592;37.460;2023-08-06T05:07:30;99418.41;;;33.24;40.40
58295;BME280;45705;55.592;37.460;2023-08-06T05:09:56;99423.81;;;33.76;39.77
58295;BME280;45705;55.592;37.460;2023-08-06T05:12:22;99422.94;;;33.09;41.04
58295;BME280;45705;55.592;37.460;2023-08-06T05:14:47;99421.94;;;33.38;39.65
58295;BME280;45705;55.592;37.460;2023-08-06T05:17:13;99410.75;;;34.00;39.26
58295;BME280;45705;55.592;37.460;2023-08-06T05:19:39;99423.78;;;33.53;39.48
58295;BME280;45705;55.592;37.460;2023-08-06T05:22:04;99415.66;;;34.40;38.20
58295;BME280;45705;55.592;37.460;2023-08-06T05:24:30;99416.50;;;34.19;37.99
58295;BME280;45705;55.592;37.460;2023-08-06T05:26:56;99413.53;;;33.91;38.55
58295;BME280;45705;55.592;37.460;2023-08-06T05:29:22;99420.16;;;34.69;38.05
58295;BME280;45705;55.592;37.460;2023-08-06T05:31:47;99418.56;;;34.68;37.42
58295;BME280;45705;55.592;37.460;2023-08-06T05:34:13;99410.09;;;34.68;37.49
58295;BME280;45705;55.592;37.460;2023-08-06T05:36:39;99400.69;;;35.73;36.30
58295;BME280;45705;55.592;37.460;2023-08-06T05:39:05;99402.56;;;35.85;35.37
58295;BME280;45705;55.592;37.460;2023-08-06T05:41:30;99401.28;;;35.86;34.58
58295;BME280;45705;55.592;37.460;2023-08-06T05:43:56;99409.50;;;35.47;35.12
58295;BME280;45705;55.592;37.460;2023-08-06T05:46:22;99401.97;;;35.72;35.78
58295;BME280;45705;55.592;37.460;2023-08-06T05:48:48;99405.59;;;34.98;35.58
58295;BME280;45705;55.592;37.460;2023-08-06T05:51:16;99406.06;;;35.52;36.51
58295;BME280;45705;55.592;37.460;2023-08-06T05:53:42;99405.09;;;35.74;35.54
58295;BME280;45705;55.592;37.460;2023-08-06T05:56:07;99397.16;;;36.63;34.64
58295;BME280;45705;55.592;37.460;2023-08-06T05:58:33;99396.75;;;36.55;34.32
58295;BME280;45705;55.592;37.460;2023-08-06T06:00:59;99400.56;;;36.19;34.72
58295;BME280;45705;55.592;37.460;2023-08-06T06:03:25;99402.81;;;36.72;34.00
58295;BME280;45705;55.592;37.460;2023-08-06T06:05:51;99400.63;;;36.67;34.23
58295;BME280;45705;55.592;37.460;2023-08-06T06:08:16;99399.22;;;36.29;33.09
58295;BME280;45705;55.592;37.460;2023-08-06T06:10:42;99402.66;;;36.91;32.60
58295;BME280;45705;55.592;37.460;2023-08-06T06:13:08;99389.63;;;36.60;33.15
58295;BME280;45705;55.592;37.460;2023-08-06T06:15:33;99393.94;;;37.18;32.09
58295;BME280;45705;55.592;37.460;2023-08-06T06:17:59;99391.84;;;37.88;30.77
58295;BME280;45705;55.592;37.460;2023-08-06T06:20:25;99392.09;;;37.15;32.39
58295;BME280;45705;55.592;37.460;2023-08-06T06:22:51;99394.00;;;37.78;31.83
58295;BME280;45705;55.592;37.460;2023-08-06T06:25:16;99401.41;;;37.31;32.13
58295;BME280;45705;55.592;37.460;2023-08-06T06:27:42;99393.00;;;37.36;32.40
58295;BME280;45705;55.592;37.460;2023-08-06T06:30:08;99386.41;;;37.69;31.64
58295;BME280;45705;55.592;37.460;2023-08-06T06:32:34;99383.09;;;36.44;33.73
58295;BME280;45705;55.592;37.460;2023-08-06T06:35:00;99389.03;;;36.56;34.00
58295;BME280;45705;55.592;37.460;2023-08-06T06:37:27;99384.53;;;37.12;32.55
58295;BME280;45705;55.592;37.460;2023-08-06T06:39:53;99381.69;;;37.66;30.93
58295;BME280;45705;55.592;37.460;2023-08-06T06:42:19;99381.66;;;37.51;31.93
58295;BME280;45705;55.592;37.460;2023-08-06T06:44:50;99389.72;;;37.68;31.98
58295;BME280;45705;55.592;37.460;2023-08-06T06:47:15;99384.41;;;37.90;31.49
58295;BME280;45705;55.592;37.460;2023-08-06T06:49:41;99388.53;;;37.59;31.51
58295;BME280;45705;55.592;37.460;2023-08-06T06:52:07;99387.59;;;36.60;34.04
58295;BME280;45705;55.592;37.460;2023-08-06T06:54:33;99384.63;;;37.72;32.68
58295;BME280;45705;55.592;37.460;2023-08-06T06:56:58;99384.13;;;37.58;31.41
58295;BME280;45705;55.592;37.460;2023-08-06T06:59:24;99383.28;;;36.74;32.29
58295;BME280;45705;55.592;37.460;2023-08-06T07:01:50;99381.06;;;37.47;31.73
58295;BME280;45705;55.592;37.460;2023-08-06T07:04:16;99377.97;;;38.25;30.87
58295;BME280;45705;55.592;37.460;2023-08-06T07:06:41;99387.63;;;38.13;31.79
58295;BME280;45705;55.592;37.460;2023-08-06T07:09:07;99385.50;;;37.48;32.16
58295;BME280;45705;55.592;37.460;2023-08-06T07:11:33;99384.50;;;38.11;31.35
58295;BME280;45705;55.592;37.460;2023-08-06T07:13:58;99380.69;;;37.99;31.48
58295;BME280;45705;55.592;37.460;2023-08-06T07:16:25;99342.78;;;36.98;32.61
58295;BME280;45705;55.592;37.460;2023-08-06T07:18:52;99381.06;;;37.47;31.56
58295;BME280;45705;55.592;37.460;2023-08-06T07:21:18;99366.78;;;37.86;31.76
58295;BME280;45705;55.592;37.460;2023-08-06T07:23:45;99355.06;;;37.34;32.51
58295;BME280;45705;55.592;37.460;2023-08-06T07:26:11;99371.81;;;37.08;32.42
58295;BME280;45705;55.592;37.460;2023-08-06T07:28:38;99365.13;;;37.35;32.98
58295;BME280;45705;55.592;37.460;2023-08-06T07:31:04;99362.47;;;37.16;32.63
58295;BME280;45705;55.592;37.460;2023-08-06T07:33:30;99369.94;;;37.29;32.37
58295;BME280;45705;55.592;37.460;2023-08-06T07:35:56;99357.41;;;35.91;34.17
58295;BME280;45705;55.592;37.460;2023-08-06T07:38:21;99362.97;;;35.76;34.74
58295;BME280;45705;55.592;37.460;2023-08-06T07:40:47;99367.41;;;35.49;35.14
58295;BME280;45705;55.592;37.460;2023-08-06T07:43:13;99362.09;;;35.05;36.50
58295;BME280;45705;55.592;37.460;2023-08-06T07:45:39;99372.56;;;34.08;38.21
58295;BME280;45705;55.592;37.460;2023-08-06T07:48:05;99381.56;;;33.41;40.12
58295;BME280;45705;55.592;37.460;2023-08-06T07:50:31;99375.00;;;33.44;40.01
58295;BME280;45705;55.592;37.460;2023-08-06T07:52:57;99373.97;;;32.93;40.76
58295;BME280;45705;55.592;37.460;2023-08-06T07:55:23;99378.91;;;32.67;41.96
58295;BME280;45705;55.592;37.460;2023-08-06T07:57:49;99367.69;;;32.29;43.60
58295;BME280;45705;55.592;37.460;2023-08-06T08:00:15;99376.78;;;32.46;44.47
58295;BME280;45705;55.592;37.460;2023-08-06T08:02:41;99378.03;;;32.06;45.46
58295;BME280;45705;55.592;37.460;2023-08-06T08:05:06;99364.63;;;31.97;45.94
58295;BME280;45705;55.592;37.460;2023-08-06T08:07:34;99371.03;;;31.72;46.04
58295;BME280;45705;55.592;37.460;2023-08-06T08:10:00;99358.56;;;31.86;46.40
58295;BME280;45705;55.592;37.460;2023-08-06T08:12:26;99354.91;;;31.47;47.09
58295;BME280;45705;55.592;37.460;2023-08-06T08:14:52;99358.56;;;31.31;48.89
58295;BME280;45705;55.592;37.460;2023-08-06T08:17:18;99359.63;;;31.21;47.76
58295;BME280;45705;55.592;37.460;2023-08-06T08:19:43;99365.31;;;30.88;49.13
58295;BME280;45705;55.592;37.460;2023-08-06T08:22:09;99356.66;;;30.83;48.62
58295;BME280;45705;55.592;37.460;2023-08-06T08:24:35;99355.97;;;31.08;48.93
58295;BME280;45705;55.592;37.460;2023-08-06T08:27:01;99350.59;;;31.00;48.83
58295;BME280;45705;55.592;37.460;2023-08-06T08:29:27;99353.72;;;31.03;49.26
58295;BME280;45705;55.592;37.460;2023-08-06T08:31:53;99350.31;;;30.95;48.37
58295;BME280;45705;55.592;37.460;2023-08-06T08:34:19;99348.16;;;30.70;52.49
58295;BME280;45705;55.592;37.460;2023-08-06T08:36:44;99339.75;;;30.53;51.84
58295;BME280;45705;55.592;37.460;2023-08-06T08:39:13;99337.84;;;30.50;52.01
58295;BME280;45705;55.592;37.460;2023-08-06T08:41:40;99336.25;;;30.66;53.97
58295;BME280;45705;55.592;37.460;2023-08-06T08:44:09;99337.81;;;30.67;51.23
58295;BME280;45705;55.592;37.460;2023-08-06T08:46:39;99345.72;;;30.39;52.17
58295;BME280;45705;55.592;37.460;2023-08-06T08:49:06;99344.22;;;30.01;52.92
58295;BME280;45705;55.592;37.460;2023-08-06T08:51:33;99336.41;;;30.09;52.50
58295;BME280;45705;55.592;37.460;2023-08-06T08:54:02;99338.66;;;30.34;53.47
58295;BME280;45705;55.592;37.460;2023-08-06T08:56:29;99323.78;;;30.17;51.77
58295;BME280;45705;55.592;37.460;2023-08-06T08:58:55;99345.25;;;30.24;51.72
58295;BME280;45705;55.592;37.460;2023-08-06T09:01:25;99341.88;;;30.33;51.45
58295;BME280;45705;55.592;37.460;2023-08-06T09:03:53;99334.00;;;30.44;51.99
58295;BME280;45705;55.592;37.460;2023-08-06T09:06:20;99331.28;;;30.40;51.75
58295;BME280;45705;55.592;37.460;2023-08-06T09:09:11;99334.41;;;30.59;51.66
58295;BME280;45705;55.592;37.460;2023-08-06T09:11:44;99329.94;;;30.61;51.35
58295;BME280;45705;55.592;37.460;2023-08-06T09:14:10;99318.88;;;30.54;52.60
58295;BME280;45705;55.592;37.460;2023-08-06T09:16:37;99328.16;;;30.68;51.91
58295;BME280;45705;55.592;37.460;2023-08-06T09:19:10;99320.28;;;30.30;50.77
58295;BME280;45705;55.592;37.460;2023-08-06T09:21:41;99334.47;;;30.55;51.73
58295;BME280;45705;55.592;37.460;2023-08-06T09:24:12;99332.56;;;30.52;52.02
58295;BME280;45705;55.592;37.460;2023-08-06T09:26:39;99328.25;;;30.64;52.00
58295;BME280;45705;55.592;37.460;2023-08-06T09:29:06;99318.06;;;30.70;51.45
58295;BME280;45705;55.592;37.460;2023-08-06T09:31:47;99323.81;;;30.34;51.95
58295;BME280;45705;55.592;37.460;2023-08-06T09:34:17;99321.34;;;30.52;52.92
58295;BME280;45705;55.592;37.460;2023-08-06T09:36:48;99317.31;;;30.53;51.46
58295;BME280;45705;55.592;37.460;2023-08-06T09:39:15;99314.47;;;30.70;51.91
58295;BME280;45705;55.592;37.460;2023-08-06T09:41:45;99318.81;;;30.87;51.87
58295;BME280;45705;55.592;37.460;2023-08-06T09:44:18;99304.69;;;30.61;51.13
58295;BME280;45705;55.592;37.460;2023-08-06T09:46:48;99302.22;;;30.47;51.61
58295;BME280;45705;55.592;37.460;2023-08-06T09:49:16;99301.78;;;30.49;51.68
58295;BME280;45705;55.592;37.460;2023-08-06T09:51:41;99312.25;;;30.32;53.25
58295;BME280;45705;55.592;37.460;2023-08-06T09:54:08;99296.09;;;30.19;53.12
58295;BME280;45705;55.592;37.460;2023-08-06T09:56:38;99302.06;;;30.54;53.19
58295;BME280;45705;55.592;37.460;2023-08-06T09:59:04;99304.44;;;30.56;52.87
58295;BME280;45705;55.592;37.460;2023-08-06T10:01:33;99287.28;;;30.67;50.84
58295;BME280;45705;55.592;37.460;2023-08-06T10:04:00;99284.78;;;30.85;50.33
58295;BME280;45705;55.592;37.460;2023-08-06T10:06:28;99281.84;;;31.05;48.96
58295;BME280;45705;55.592;37.460;2023-08-06T10:08:54;99272.09;;;31.10;48.44
58295;BME280;45705;55.592;37.460;2023-08-06T10:11:22;99276.25;;;31.18;49.50
58295;BME280;45705;55.592;37.460;2023-08-06T10:13:52;99278.25;;;31.05;49.83
58295;BME280;45705;55.592;37.460;2023-08-06T10:16:20;99275.38;;;30.62;50.72
58295;BME280;45705;55.592;37.460;2023-08-06T10:18:47;99266.44;;;30.68;50.61
58295;BME280;45705;55.592;37.460;2023-08-06T10:21:14;99273.50;;;31.01;50.09
58295;BME280;45705;55.592;37.460;2023-08-06T10:23:41;99266.44;;;30.97;49.98
58295;BME280;45705;55.592;37.460;2023-08-06T10:26:07;99274.41;;;30.98;49.89
58295;BME280;45705;55.592;37.460;2023-08-06T10:28:37;99254.44;;;30.80;49.52
58295;BME280;45705;55.592;37.460;2023-08-06T10:31:04;99248.28;;;31.14;49.28
58295;BME280;45705;55.592;37.460;2023-08-06T10:33:43;99261.03;;;30.90;49.71
58295;BME280;45705;55.592;37.460;2023-08-06T10:36:10;99264.13;;;30.79;51.58
58295;BME280;45705;55.592;37.460;2023-08-06T10:38:47;99260.13;;;30.64;50.18
58295;BME280;45705;55.592;37.460;2023-08-06T10:43:49;99256.13;;;31.07;47.75
58295;BME280;45705;55.592;37.460;2023-08-06T10:46:27;99250.00;;;31.37;48.08
58295;BME280;45705;55.592;37.460;2023-08-06T10:48:53;99248.69;;;31.55;47.59
58295;BME280;45705;55.592;37.460;2023-08-06T10:51:18;99266.38;;;31.26;49.16
58295;BME280;45705;55.592;37.460;2023-08-06T10:53:45;99260.03;;;30.96;48.77
58295;BME280;45705;55.592;37.460;2023-08-06T10:56:21;99259.22;;;30.96;49.10
58295;BME280;45705;55.592;37.460;2023-08-06T10:58:49;99245.13;;;31.12;49.98
58295;BME280;45705;55.592;37.460;2023-08-06T11:01:15;99246.81;;;31.23;49.83
58295;BME280;45705;55.592;37.460;2023-08-06T11:03:42;99248.84;;;31.22;49.17
58295;BME280;45705;55.592;37.460;2023-08-06T11:06:09;99256.16;;;31.19;50.61
58295;BME280;45705;55.592;37.460;2023-08-06T11:08:36;99252.19;;;31.17;49.66
58295;BME280;45705;55.592;37.460;2023-08-06T11:11:10;99248.66;;;31.29;48.96
58295;BME280;45705;55.592;37.460;2023-08-06T11:13:40;99247.34;;;31.47;49.58
58295;BME280;45705;55.592;37.460;2023-08-06T11:16:06;99260.09;;;31.22;50.50
58295;BME280;45705;55.592;37.460;2023-08-06T11:18:33;99249.50;;;31.00;49.29
58295;BME280;45705;55.592;37.460;2023-08-06T11:21:02;99261.69;;;30.94;50.47
58295;BME280;45705;55.592;37.460;2023-08-06T11:23:28;99245.34;;;30.76;49.70
58295;BME280;45705;55.592;37.460;2023-08-06T11:25:55;99247.63;;;30.81;49.11
58295;BME280;45705;55.592;37.460;2023-08-06T11:28:21;99250.56;;;30.90;46.31
58295;BME280;45705;55.592;37.460;2023-08-06T11:30:48;99242.13;;;30.90;49.30
58295;BME280;45705;55.592;37.460;2023-08-06T11:33:13;99235.25;;;31.20;47.78
58295;BME280;45705;55.592;37.460;2023-08-06T11:35:39;99230.00;;;31.35;48.42
58295;BME280;45705;55.592;37.460;2023-08-06T11:38:06;99243.47;;;31.40;49.28
58295;BME280;45705;55.592;37.460;2023-08-06T11:40:32;99244.34;;;31.12;49.31
58295;BME280;45705;55.592;37.460;2023-08-06T11:42:59;99244.06;;;30.93;50.74
58295;BME280;45705;55.592;37.460;2023-08-06T11:45:24;99232.00;;;31.22;49.71
58295;BME280;45705;55.592;37.460;2023-08-06T11:47:51;99233.34;;;31.30;50.63
58295;BME280;45705;55.592;37.460;2023-08-06T11:50:27;99234.47;;;31.20;48.84
58295;BME280;45705;55.592;37.460;2023-08-06T11:52:56;99235.09;;;30.98;48.59
58295;BME280;45705;55.592;37.460;2023-08-06T11:55:24;99227.59;;;31.08;49.38
58295;BME280;45705;55.592;37.460;2023-08-06T11:57:50;99227.22;;;30.93;48.86
58295;BME280;45705;55.592;37.460;2023-08-06T12:00:16;99217.59;;;30.94;49.46
58295;BME280;45705;55.592;37.460;2023-08-06T12:02:46;99218.63;;;30.84;50.17
58295;BME280;45705;55.592;37.460;2023-08-06T12:05:16;99215.13;;;30.80;49.25
58295;BME280;45705;55.592;37.460;2023-08-06T12:07:44;99213.19;;;30.93;49.20
58295;BME280;45705;55.592;37.460;2023-08-06T12:10:12;99209.25;;;31.04;48.74
58295;BME280;45705;55.592;37.460;2023-08-06T12:12:38;99211.88;;;31.11;49.52
58295;BME280;45705;55.592;37.460;2023-08-06T12:15:05;99207.84;;;31.12;49.21
58295;BME280;45705;55.592;37.460;2023-08-06T12:17:32;99207.50;;;31.10;49.72
58295;BME280;45705;55.592;37.460;2023-08-06T12:19:58;99209.94;;;31.08;49.15
58295;BME280;45705;55.592;37.460;2023-08-06T12:22:24;99205.91;;;31.09;48.48
58295;BME280;45705;55.592;37.460;2023-08-06T12:24:49;99211.81;;;30.85;47.70
58295;BME280;45705;55.592;37.460;2023-08-06T12:27:16;99211.97;;;30.94;48.47
58295;BME280;45705;55.592;37.460;2023-08-06T12:29:47;99179.75;;;30.70;47.95
58295;BME280;45705;55.592;37.460;2023-08-06T12:32:13;99209.00;;;30.85;47.17
58295;BME280;45705;55.592;37.460;2023-08-06T12:34:41;99213.47;;;30.83;48.81
58295;BME280;45705;55.592;37.460;2023-08-06T12:37:07;99191.06;;;30.95;48.06
58295;BME280;45705;55.592;37.460;2023-08-06T12:39:33;99205.25;;;31.05;47.39
58295;BME280;45705;55.592;37.460;2023-08-06T12:42:00;99208.97;;;31.14;47.79
58295;BME280;45705;55.592;37.460;2023-08-06T12:44:26;99198.72;;;31.08;48.20
58295;BME280;45705;55.592;37.460;2023-08-06T12:46:53;99208.44;;;30.90;47.35
58295;BME280;45705;55.592;37.460;2023-08-06T12:49:19;99201.22;;;30.76;47.78